Time;durP1;ratioP1;P1;durP2;ratioP2;P2;SDS_P1;SDS_P2;PMS_P1;PMS_P2;Temp;Humidity;BMP_temperature;BMP_pressure;BME280_temperature;BME280_humidity;BME280_pressure;Samples;Min_cycle;Max_cycle;Signal;HPM_P1;HPM_P2
2023/03/30 00:00:37;;;;;;;5.00;2.42;;;14.20;78.70;;;;;;5070955;28;20493;-67
2023/03/30 00:03:03;;;;;;;4.68;2.25;;;14.30;78.90;;;;;;5081203;28;20030;-69
2023/03/30 00:05:30;;;;;;;4.50;2.33;;;14.20;78.80;;;;;;5084722;28;20019;-68
2023/03/30 00:07:56;;;;;;;3.47;2.17;;;14.20;79.40;;;;;;5084295;28;20017;-68
2023/03/30 00:10:22;;;;;;;5.03;2.13;;;14.30;78.70;;;;;;5090069;28;20028;-69
2023/03/30 00:12:49;;;;;;;5.63;2.63;;;14.30;78.60;;;;;;5070947;28;20051;-69
2023/03/30 00:15:18;;;;;;;4.55;2.30;;;14.20;78.40;;;;;;5070811;28;20033;-69
2023/03/30 00:17:44;;;;;;;6.10;2.55;;;14.30;78.50;;;;;;5070694;28;20098;-69
2023/03/30 00:20:11;;;;;;;3.63;2.13;;;14.30;78.40;;;;;;5071664;28;20020;-69
2023/03/30 00:22:38;;;;;;;4.05;2.40;;;14.30;78.40;;;;;;5070386;28;20032;-68
2023/03/30 00:25:07;;;;;;;3.22;2.10;;;14.30;78.30;;;;;;5071468;28;20020;-68
2023/03/30 00:27:33;;;;;;;3.30;2.17;;;14.30;78.30;;;;;;5086313;28;20023;-68
2023/03/30 00:29:59;;;;;;;4.38;2.45;;;14.30;78.10;;;;;;5089312;28;20028;-68
2023/03/30 00:32:24;;;;;;;2.80;1.90;;;14.30;78.10;;;;;;5070553;28;20052;-67
2023/03/30 00:34:50;;;;;;;4.35;2.60;;;14.30;78.10;;;;;;5070280;28;20028;-70
2023/03/30 00:37:16;;;;;;;3.70;2.20;;;14.20;78.10;;;;;;5083549;28;20143;-69
2023/03/30 00:39:43;;;;;;;4.45;2.15;;;14.20;78.10;;;;;;5089094;28;20020;-68
2023/03/30 00:42:16;;;;;;;4.45;2.20;;;14.20;78.20;;;;;;5087173;28;20429;-65
2023/03/30 00:45:06;;;;;;;3.38;1.88;;;14.20;78.20;;;;;;5087556;28;20103;-68
2023/03/30 00:47:36;;;;;;;4.85;2.40;;;14.20;78.10;;;;;;5089699;28;20488;-68
2023/03/30 00:50:04;;;;;;;3.63;2.00;;;14.20;78.00;;;;;;5088298;28;20035;-68
2023/03/30 00:52:32;;;;;;;2.92;1.85;;;14.20;78.00;;;;;;5082152;28;20020;-69
2023/03/30 00:54:58;;;;;;;2.53;1.70;;;14.20;78.00;;;;;;5088787;28;20028;-67
2023/03/30 00:57:25;;;;;;;2.83;1.67;;;14.20;78.00;;;;;;5082122;28;20467;-69
2023/03/30 00:59:51;;;;;;;2.22;1.45;;;14.20;78.00;;;;;;5089983;28;20103;-68
2023/03/30 01:02:20;;;;;;;2.22;1.50;;;14.20;78.00;;;;;;5079070;28;20023;-68
2023/03/30 01:04:47;;;;;;;2.28;1.42;;;14.20;77.90;;;;;;5089925;28;20363;-68
2023/03/30 01:07:13;;;;;;;2.55;1.60;;;14.20;77.90;;;;;;5087571;28;20020;-68
2023/03/30 01:09:40;;;;;;;1.52;1.20;;;14.30;77.90;;;;;;5090358;28;20474;-68
2023/03/30 01:12:06;;;;;;;2.58;1.40;;;14.30;77.80;;;;;;5071691;28;20025;-68
2023/03/30 01:14:31;;;;;;;1.20;1.00;;;14.30;77.70;;;;;;5069925;28;20586;-67
2023/03/30 01:17:43;;;;;;;2.58;1.40;;;14.30;77.70;;;;;;5078289;28;20039;-70
2023/03/30 01:20:39;;;;;;;2.33;1.10;;;14.30;78.40;;;;;;5066132;28;20048;-69
2023/03/30 01:23:32;;;;;;;3.03;1.10;;;14.30;77.70;;;;;;5071481;28;20056;-68
2023/03/30 01:26:07;;;;;;;;;;;14.30;77.70;;;;;;5069054;28;20051;-69
2023/03/30 01:28:35;;;;;;;1.75;1.00;;;14.30;77.60;;;;;;5089234;28;20422;-68
2023/03/30 01:31:36;;;;;;;2.00;1.33;;;14.30;77.70;;;;;;5087049;28;20032;-70
2023/03/30 01:34:17;;;;;;;1.23;0.93;;;14.30;77.70;;;;;;5073469;28;20024;-69
2023/03/30 01:37:00;;;;;;;2.72;1.27;;;14.30;77.60;;;;;;5088541;28;20028;-68
2023/03/30 01:39:47;;;;;;;2.22;1.15;;;14.30;77.60;;;;;;5090089;28;20020;-69
2023/03/30 01:42:51;;;;;;;3.58;1.55;;;14.30;77.50;;;;;;5082146;28;20028;-68
2023/03/30 01:45:50;;;;;;;2.88;1.42;;;14.30;77.50;;;;;;5089861;28;20103;-69
2023/03/30 01:48:38;;;;;;;2.55;1.30;;;14.30;77.50;;;;;;5089861;28;20020;-69
2023/03/30 01:51:11;;;;;;;2.45;1.45;;;14.30;77.50;;;;;;5093484;28;20034;-67
2023/03/30 01:53:48;;;;;;;2.30;1.40;;;14.30;77.30;;;;;;5092436;28;20685;-69
2023/03/30 01:56:31;;;;;;;1.73;1.38;;;14.30;77.20;;;;;;5093818;28;20032;-69
2023/03/30 01:59:00;;;;;;;2.03;1.20;;;14.40;77.20;;;;;;5091669;28;20080;-68
2023/03/30 02:01:29;;;;;;;5.78;1.65;;;14.40;77.80;;;;;;5073975;28;20359;-68
2023/03/30 02:03:57;;;;;;;2.92;1.75;;;14.40;77.10;;;;;;5088921;28;20024;-70
2023/03/30 02:06:29;;;;;;;3.00;1.65;;;14.40;77.00;;;;;;5093628;28;20028;-69
2023/03/30 02:08:59;;;;;;;4.07;1.92;;;14.30;76.80;;;;;;5078278;28;20122;-68
2023/03/30 02:11:25;;;;;;;2.33;1.65;;;14.30;76.70;;;;;;5073170;28;20143;-69
2023/03/30 02:13:54;;;;;;;1.52;1.17;;;14.30;77.30;;;;;;5073530;28;20040;-69
2023/03/30 02:16:46;;;;;;;2.13;1.40;;;14.30;76.80;;;;;;5076258;28;20286;-69
2023/03/30 02:19:12;;;;;;;2.95;1.73;;;14.30;76.90;;;;;;5093032;28;20165;-69
2023/03/30 02:21:38;;;;;;;3.20;1.70;;;14.30;76.60;;;;;;5084114;28;20028;-68
2023/03/30 02:24:08;;;;;;;2.90;1.48;;;14.30;76.60;;;;;;5092445;28;20024;-69
2023/03/30 02:26:35;;;;;;;3.53;1.52;;;14.40;76.60;;;;;;5092464;28;20486;-68
2023/03/30 02:29:01;;;;;;;3.00;1.92;;;14.40;76.70;;;;;;5092991;28;20016;-69
2023/03/30 02:31:27;;;;;;;4.80;1.67;;;14.30;76.30;;;;;;5087767;28;20378;-67
2023/03/30 02:34:36;;;;;;;2.38;1.50;;;14.30;76.40;;;;;;5072227;28;20434;-68
2023/03/30 02:37:41;;;;;;;2.78;1.60;;;14.30;76.50;;;;;;5072335;28;20033;-69
2023/03/30 02:40:31;;;;;;;3.22;1.50;;;14.20;76.60;;;;;;5075753;28;20051;-68
2023/03/30 02:43:21;;;;;;;2.45;1.30;;;14.20;76.80;;;;;;5086937;28;20020;-68
2023/03/30 02:46:05;;;;;;;2.75;1.20;;;14.20;76.80;;;;;;5088761;28;20047;-68
2023/03/30 02:48:42;;;;;;;1.88;1.20;;;14.10;76.80;;;;;;5077316;28;20024;-69
2023/03/30 02:51:10;;;;;;;1.48;1.05;;;14.10;77.10;;;;;;5088297;28;20031;-69
2023/03/30 02:53:51;;;;;;;2.47;1.30;;;14.00;77.10;;;;;;5086220;28;20027;-68
2023/03/30 02:56:42;;;;;;;1.98;1.35;;;14.10;77.20;;;;;;5105420;28;20535;-69
2023/03/30 02:59:12;;;;;;;2.00;1.13;;;14.10;77.10;;;;;;5070365;28;20467;-68
2023/03/30 03:01:51;;;;;;;1.77;1.20;;;14.10;77.00;;;;;;5076963;28;20062;-68
2023/03/30 03:04:18;;;;;;;1.92;1.17;;;14.10;77.00;;;;;;5092055;28;20027;-68
2023/03/30 03:06:44;;;;;;;2.63;1.10;;;14.10;76.90;;;;;;5092457;28;20020;-67
2023/03/30 03:09:10;;;;;;;1.73;1.10;;;14.20;77.00;;;;;;5077176;28;20028;-68
2023/03/30 03:11:36;;;;;;;1.15;1.00;;;14.20;77.00;;;;;;5075417;28;20025;-67
2023/03/30 03:14:01;;;;;;;2.17;0.90;;;14.20;77.00;;;;;;5090175;28;20020;-69
2023/03/30 03:16:27;;;;;;;1.17;0.80;;;14.20;76.90;;;;;;5091584;28;20028;-68
2023/03/30 03:18:53;;;;;;;1.35;0.85;;;14.30;77.00;;;;;;5087565;28;20485;-69
2023/03/30 03:21:18;;;;;;;2.55;1.15;;;14.30;77.00;;;;;;5076295;28;20438;-69
2023/03/30 03:23:47;;;;;;;1.00;0.77;;;14.30;77.00;;;;;;5080772;28;20043;-68
2023/03/30 03:26:12;;;;;;;1.63;1.00;;;14.30;77.00;;;;;;5086927;28;20024;-68
2023/03/30 03:28:38;;;;;;;1.52;1.00;;;14.40;77.10;;;;;;5077020;28;20043;-67
2023/03/30 03:31:04;;;;;;;1.08;0.90;;;14.40;77.10;;;;;;5081150;28;20049;-67
2023/03/30 03:33:30;;;;;;;0.70;0.70;;;14.40;77.00;;;;;;5073225;28;20024;-67
2023/03/30 03:35:58;;;;;;;0.85;0.80;;;14.40;77.00;;;;;;5071375;28;20032;-68
2023/03/30 03:38:25;;;;;;;0.80;0.80;;;14.40;77.00;;;;;;5077262;28;20635;-67
2023/03/30 03:40:53;;;;;;;1.27;1.00;;;14.40;77.10;;;;;;5088158;28;20550;-68
2023/03/30 03:43:18;;;;;;;1.48;0.85;;;14.40;77.20;;;;;;5078194;28;20031;-69
2023/03/30 03:45:45;;;;;;;1.08;0.90;;;14.40;77.20;;;;;;5070171;28;20029;-69
2023/03/30 03:48:15;;;;;;;1.40;0.80;;;14.40;77.20;;;;;;5087141;28;20091;-69
2023/03/30 03:50:41;;;;;;;0.80;0.70;;;14.30;77.30;;;;;;5091042;28;20639;-69
2023/03/30 03:53:08;;;;;;;1.73;1.23;;;14.30;77.40;;;;;;5082707;28;20063;-66
2023/03/30 03:55:35;;;;;;;1.75;0.90;;;14.30;77.50;;;;;;5076934;28;20112;-68
2023/03/30 03:58:04;;;;;;;0.80;0.80;;;14.30;77.60;;;;;;5071293;28;20021;-69
2023/03/30 04:00:31;;;;;;;2.03;0.88;;;14.20;77.60;;;;;;5083030;28;20020;-68
2023/03/30 04:02:56;;;;;;;1.20;1.00;;;14.20;77.80;;;;;;5083740;28;20025;-67
2023/03/30 04:05:23;;;;;;;2.22;1.00;;;14.10;77.80;;;;;;5081579;28;20020;-68
2023/03/30 04:07:49;;;;;;;1.30;1.05;;;14.20;77.90;;;;;;5083848;28;20020;-67
2023/03/30 04:10:14;;;;;;;0.80;0.77;;;14.20;77.90;;;;;;5084670;28;20028;-67
2023/03/30 04:12:40;;;;;;;1.80;0.90;;;14.20;77.90;;;;;;5084228;28;20051;-66
2023/03/30 04:15:06;;;;;;;0.95;0.90;;;14.20;77.90;;;;;;5077278;28;20059;-66
2023/03/30 04:17:33;;;;;;;0.95;0.80;;;14.20;77.90;;;;;;5084437;28;20409;-67
2023/03/30 04:20:03;;;;;;;1.73;0.80;;;14.20;77.90;;;;;;5080213;28;20039;-68
2023/03/30 04:22:31;;;;;;;2.80;1.20;;;14.20;78.00;;;;;;5078926;28;20385;-66
2023/03/30 04:24:58;;;;;;;1.42;0.88;;;14.20;78.00;;;;;;5081668;28;20020;-67
2023/03/30 04:27:24;;;;;;;1.80;1.02;;;14.20;78.10;;;;;;5081138;28;20024;-68
2023/03/30 04:29:50;;;;;;;2.20;0.80;;;14.20;78.10;;;;;;5084154;28;20021;-66
2023/03/30 04:32:19;;;;;;;1.02;0.77;;;14.20;78.10;;;;;;5086967;28;20508;-67
2023/03/30 04:34:45;;;;;;;2.70;0.75;;;14.20;78.10;;;;;;5084335;28;20686;-67
2023/03/30 04:37:16;;;;;;;0.98;0.60;;;14.20;78.50;;;;;;5074674;28;20441;-68
2023/03/30 04:39:43;;;;;;;0.50;0.47;;;14.20;78.40;;;;;;5070405;28;20021;-67
2023/03/30 04:42:13;;;;;;;1.30;0.70;;;14.20;78.40;;;;;;5070339;28;20386;-67
2023/03/30 04:44:39;;;;;;;1.15;0.57;;;14.20;78.40;;;;;;5070454;28;20089;-67
2023/03/30 04:47:05;;;;;;;1.00;0.60;;;14.30;78.50;;;;;;5070088;28;20486;-67
2023/03/30 04:49:30;;;;;;;1.75;0.70;;;14.30;78.50;;;;;;5070432;28;20143;-67
2023/03/30 04:51:56;;;;;;;1.13;0.90;;;14.30;78.40;;;;;;5070671;28;20082;-68
2023/03/30 04:54:22;;;;;;;1.27;0.70;;;14.40;78.50;;;;;;5082003;28;20383;-68
2023/03/30 04:56:47;;;;;;;0.60;0.60;;;14.30;78.60;;;;;;5081361;28;20033;-66
2023/03/30 04:59:13;;;;;;;0.93;0.85;;;14.30;78.60;;;;;;5070130;28;20074;-67
2023/03/30 05:01:38;;;;;;;0.70;0.70;;;14.30;78.70;;;;;;5082183;28;20031;-67
2023/03/30 05:04:04;;;;;;;1.42;0.60;;;14.30;78.70;;;;;;5088894;28;20119;-67
2023/03/30 05:06:30;;;;;;;2.33;0.90;;;14.30;78.80;;;;;;5084133;28;20020;-67
2023/03/30 05:08:56;;;;;;;6.38;1.20;;;14.20;79.10;;;;;;5083036;28;20024;-67
2023/03/30 05:11:21;;;;;;;1.55;1.00;;;14.20;79.40;;;;;;5081791;28;20023;-66
2023/03/30 05:13:50;;;;;;;0.70;0.70;;;14.10;79.60;;;;;;5088241;28;20028;-67
2023/03/30 05:16:16;;;;;;;1.40;0.90;;;14.00;80.00;;;;;;5086274;28;20440;-66
2023/03/30 05:18:42;;;;;;;1.70;1.10;;;13.90;80.60;;;;;;5077358;28;20020;-66
2023/03/30 05:21:08;;;;;;;1.88;1.13;;;13.80;80.90;;;;;;5073614;28;20028;-67
2023/03/30 05:23:33;;;;;;;2.38;1.10;;;13.70;81.40;;;;;;5086390;28;20031;-67
2023/03/30 05:25:59;;;;;;;1.30;1.10;;;13.70;81.60;;;;;;5090766;28;20418;-68
2023/03/30 05:28:24;;;;;;;1.92;0.90;;;13.60;81.70;;;;;;5093245;28;20486;-68
2023/03/30 05:30:53;;;;;;;1.20;1.00;;;13.60;82.00;;;;;;5089450;28;20482;-68
2023/03/30 05:33:20;;;;;;;1.35;0.90;;;13.60;82.00;;;;;;5079251;28;20387;-67
2023/03/30 05:35:46;;;;;;;2.88;1.10;;;13.60;82.10;;;;;;5078260;28;20502;-66
2023/03/30 05:38:11;;;;;;;1.60;1.10;;;13.60;82.20;;;;;;5080666;28;20111;-66
2023/03/30 05:40:37;;;;;;;4.13;1.35;;;13.60;82.40;;;;;;5073853;28;20086;-67
2023/03/30 05:43:06;;;;;;;3.25;1.30;;;13.50;82.40;;;;;;5079377;28;20111;-69
2023/03/30 05:45:31;;;;;;;1.60;1.10;;;13.50;82.60;;;;;;5086843;28;20020;-68
2023/03/30 05:47:57;;;;;;;2.28;1.10;;;13.50;82.70;;;;;;5080830;28;20177;-69
2023/03/30 05:50:22;;;;;;;1.33;1.00;;;13.50;82.80;;;;;;5088219;28;20435;-69
2023/03/30 05:52:48;;;;;;;2.13;1.20;;;13.40;82.80;;;;;;5084660;28;20052;-68
2023/03/30 05:55:14;;;;;;;2.88;1.30;;;13.40;82.90;;;;;;5081117;28;20107;-68
2023/03/30 05:57:40;;;;;;;4.28;1.20;;;13.40;83.20;;;;;;5085579;28;20024;-69
2023/03/30 06:00:06;;;;;;;3.58;1.40;;;13.40;83.30;;;;;;5080527;28;20078;-69
2023/03/30 06:02:32;;;;;;;2.42;1.20;;;13.40;83.30;;;;;;5086361;28;20027;-69
2023/03/30 06:05:00;;;;;;;3.78;1.30;;;13.30;83.50;;;;;;5092408;28;20028;-68
2023/03/30 06:07:26;;;;;;;2.05;1.20;;;13.30;83.60;;;;;;5099576;28;20020;-68
2023/03/30 06:09:52;;;;;;;2.30;1.00;;;13.40;83.50;;;;;;5086326;28;20028;-68
2023/03/30 06:12:18;;;;;;;3.13;1.50;;;13.40;83.40;;;;;;5086535;28;20020;-68
2023/03/30 06:14:44;;;;;;;2.75;1.17;;;13.40;83.50;;;;;;5084838;28;20032;-69
2023/03/30 06:17:11;;;;;;;1.90;1.20;;;13.40;83.60;;;;;;5083594;28;20055;-69
2023/03/30 06:19:38;;;;;;;3.05;1.40;;;13.40;83.40;;;;;;5080444;28;20032;-69
2023/03/30 06:22:04;;;;;;;2.17;1.15;;;13.50;83.50;;;;;;5084425;28;20016;-69
2023/03/30 06:24:30;;;;;;;2.90;1.58;;;13.50;83.40;;;;;;5087833;28;20582;-68
2023/03/30 06:26:55;;;;;;;2.05;1.20;;;13.50;83.50;;;;;;5087305;28;20122;-69
2023/03/30 06:29:21;;;;;;;1.60;1.10;;;13.50;83.70;;;;;;5083655;28;20436;-68
2023/03/30 06:31:47;;;;;;;2.92;1.30;;;13.50;83.90;;;;;;5084681;28;20099;-69
2023/03/30 06:34:13;;;;;;;3.58;1.30;;;13.50;83.90;;;;;;5078639;28;20103;-69
2023/03/30 06:36:39;;;;;;;3.80;1.60;;;13.50;83.80;;;;;;5085119;28;20016;-70
2023/03/30 06:39:04;;;;;;;4.05;1.30;;;13.50;84.00;;;;;;5079048;28;20039;-69
2023/03/30 06:41:30;;;;;;;3.67;1.13;;;13.50;84.10;;;;;;5090235;28;20026;-69
2023/03/30 06:43:56;;;;;;;2.22;0.98;;;13.50;84.10;;;;;;5082035;28;20020;-69
2023/03/30 06:46:21;;;;;;;1.70;0.90;;;13.50;84.20;;;;;;5078785;28;20563;-69
2023/03/30 06:48:47;;;;;;;1.35;1.00;;;13.50;84.50;;;;;;5093709;28;20028;-69
2023/03/30 06:51:13;;;;;;;2.28;0.90;;;13.60;84.10;;;;;;5079954;28;20094;-68
2023/03/30 06:53:39;;;;;;;1.73;1.08;;;13.60;83.90;;;;;;5089432;28;20031;-67
2023/03/30 06:56:06;;;;;;;2.53;1.20;;;13.60;83.80;;;;;;5085555;28;20035;-68
2023/03/30 06:58:33;;;;;;;2.90;1.35;;;13.60;84.70;;;;;;5091949;28;20020;-68
2023/03/30 07:01:06;;;;;;;2.63;1.15;;;13.60;84.30;;;;;;5085087;28;20028;-69
2023/03/30 07:03:32;;;;;;;2.40;1.30;;;13.60;84.30;;;;;;5079266;28;20027;-68
2023/03/30 07:05:57;;;;;;;5.32;1.67;;;13.50;84.40;;;;;;5088401;28;20017;-68
2023/03/30 07:08:23;;;;;;;3.80;1.67;;;13.50;84.80;;;;;;5090037;28;20035;-68
2023/03/30 07:10:50;;;;;;;3.08;1.35;;;13.50;84.90;;;;;;5080770;28;20024;-68
2023/03/30 07:13:15;;;;;;;4.47;2.05;;;13.50;85.00;;;;;;5078140;28;20035;-69
2023/03/30 07:15:41;;;;;;;3.92;1.33;;;13.50;85.30;;;;;;5084786;28;20025;-67
2023/03/30 07:18:07;;;;;;;2.78;1.20;;;13.40;85.00;;;;;;5084265;28;20166;-69
2023/03/30 07:20:32;;;;;;;5.15;1.17;;;13.50;85.00;;;;;;5080433;28;20031;-69
2023/03/30 07:22:58;;;;;;;2.30;1.00;;;13.50;85.00;;;;;;5089294;28;20509;-69
2023/03/30 07:25:23;;;;;;;2.53;1.17;;;13.50;84.90;;;;;;5088278;28;20012;-67
2023/03/30 07:27:49;;;;;;;2.88;1.20;;;13.50;84.80;;;;;;5078828;28;20021;-69
2023/03/30 07:30:15;;;;;;;2.92;1.05;;;13.60;84.80;;;;;;5077089;28;20024;-68
2023/03/30 07:32:40;;;;;;;3.65;1.20;;;13.90;85.10;;;;;;5089003;28;20043;-67
2023/03/30 07:35:07;;;;;;;3.67;1.10;;;14.00;83.80;;;;;;5074060;28;21694;-68
2023/03/30 07:37:34;;;;;;;3.88;1.30;;;14.10;83.50;;;;;;5075600;28;20023;-68
2023/03/30 07:39:59;;;;;;;2.63;0.93;;;14.00;83.30;;;;;;5078015;28;20024;-69
2023/03/30 07:42:25;;;;;;;2.22;1.00;;;14.10;83.30;;;;;;5083859;28;20035;-69
2023/03/30 07:44:51;;;;;;;3.08;1.40;;;14.10;83.10;;;;;;5079750;28;20112;-70
2023/03/30 07:47:16;;;;;;;4.88;1.40;;;14.10;83.10;;;;;;5081226;28;20029;-68
2023/03/30 07:49:42;;;;;;;5.22;1.40;;;14.10;83.30;;;;;;5086650;28;20047;-69
2023/03/30 07:52:07;;;;;;;4.97;1.58;;;14.10;83.50;;;;;;5089334;28;20031;-69
2023/03/30 07:54:33;;;;;;;3.60;1.25;;;14.10;83.70;;;;;;5088589;28;20035;-69
2023/03/30 07:56:59;;;;;;;4.30;1.50;;;14.00;83.70;;;;;;5081883;28;20115;-69
2023/03/30 07:59:25;;;;;;;3.10;1.08;;;14.10;83.70;;;;;;5086486;28;20028;-67
2023/03/30 08:01:53;;;;;;;3.85;1.40;;;14.10;83.60;;;;;;5086215;28;20378;-69
2023/03/30 08:04:20;;;;;;;7.15;1.30;;;14.10;83.60;;;;;;5086249;28;20081;-69
2023/03/30 08:06:46;;;;;;;5.82;1.30;;;14.10;83.40;;;;;;5089009;28;20095;-69
2023/03/30 08:09:12;;;;;;;4.00;1.30;;;14.10;83.20;;;;;;5099198;28;20027;-69
2023/03/30 08:11:38;;;;;;;3.80;1.02;;;14.10;83.30;;;;;;5088351;28;20020;-68
2023/03/30 08:14:04;;;;;;;3.22;1.10;;;14.10;83.20;;;;;;5084908;28;20055;-69
2023/03/30 08:16:30;;;;;;;5.68;1.42;;;14.10;83.00;;;;;;5086288;28;20081;-70
2023/03/30 08:18:56;;;;;;;5.07;1.42;;;14.10;82.90;;;;;;5082763;28;20091;-69
2023/03/30 08:21:24;;;;;;;4.75;1.42;;;14.20;82.80;;;;;;5087803;28;20024;-69
2023/03/30 08:23:50;;;;;;;7.30;1.33;;;14.20;82.60;;;;;;5083438;28;20023;-69
2023/03/30 08:26:16;;;;;;;7.22;1.30;;;14.20;82.30;;;;;;5083843;28;20111;-68
2023/03/30 08:28:42;;;;;;;6.18;1.70;;;14.30;82.10;;;;;;5084674;28;20095;-68
2023/03/30 08:31:09;;;;;;;4.25;1.25;;;14.40;81.70;;;;;;5088169;28;20401;-69
2023/03/30 08:33:35;;;;;;;5.80;1.63;;;14.50;81.40;;;;;;5076500;28;20034;-68
2023/03/30 08:36:01;;;;;;;6.50;1.85;;;14.60;81.00;;;;;;5085161;28;20119;-69
2023/03/30 08:38:27;;;;;;;8.30;1.67;;;14.60;80.60;;;;;;5082822;28;20150;-68
2023/03/30 08:40:52;;;;;;;9.45;1.98;;;14.70;80.60;;;;;;5083934;28;20046;-68
2023/03/30 08:43:30;;;;;;;8.65;1.77;;;14.80;80.00;;;;;;5077211;28;20063;-66
2023/03/30 08:45:59;;;;;;;7.20;2.00;;;14.90;79.80;;;;;;5083701;28;20150;-68
2023/03/30 08:48:27;;;;;;;7.35;1.50;;;14.80;79.70;;;;;;5083430;28;20100;-69
2023/03/30 08:51:17;;;;;;;6.88;1.50;;;14.60;79.80;;;;;;5087380;28;20493;-68
2023/03/30 08:53:43;;;;;;;6.25;1.45;;;14.60;80.30;;;;;;5083283;28;20035;-69
2023/03/30 08:56:16;;;;;;;8.32;2.00;;;14.50;80.40;;;;;;5081692;28;20422;-68
2023/03/30 08:59:19;;;;;;;6.10;1.50;;;14.50;80.40;;;;;;5076154;28;20029;-69
2023/03/30 09:01:52;;;;;;;6.57;1.60;;;14.50;80.40;;;;;;5076633;28;20029;-68
2023/03/30 09:04:44;;;;;;;9.10;1.77;;;14.50;80.20;;;;;;5078190;28;20024;-70
2023/03/30 09:07:20;;;;;;;5.18;1.40;;;14.40;80.10;;;;;;5080580;28;20031;-70
2023/03/30 09:09:50;;;;;;;5.00;1.33;;;14.40;80.40;;;;;;5083424;28;20051;-69
2023/03/30 09:12:20;;;;;;;5.15;1.23;;;14.40;80.40;;;;;;5082538;28;20482;-70
2023/03/30 09:14:51;;;;;;;5.03;1.65;;;14.30;80.20;;;;;;5089699;28;20501;-70
2023/03/30 09:17:21;;;;;;;4.60;1.30;;;14.30;80.50;;;;;;5088351;28;20056;-68
2023/03/30 09:19:56;;;;;;;5.75;1.65;;;14.30;80.60;;;;;;5086218;28;20032;-68
2023/03/30 09:22:26;;;;;;;5.07;1.77;;;14.30;80.70;;;;;;5085736;28;20025;-70
2023/03/30 09:24:52;;;;;;;6.90;1.70;;;14.10;81.00;;;;;;5083159;28;20026;-69
2023/03/30 09:27:41;;;;;;;3.55;1.40;;;14.00;81.50;;;;;;5086641;28;20036;-68
2023/03/30 09:30:20;;;;;;;5.88;1.80;;;13.80;82.00;;;;;;5081244;28;20017;-69
2023/03/30 09:32:56;;;;;;;8.57;2.00;;;13.80;82.70;;;;;;5085843;28;20027;-68
2023/03/30 09:35:52;;;;;;;7.40;1.65;;;13.90;83.00;;;;;;5071682;28;20454;-68
2023/03/30 09:38:20;;;;;;;4.50;1.50;;;14.00;83.30;;;;;;5080908;28;20083;-68
2023/03/30 09:41:06;;;;;;;3.92;1.60;;;14.10;82.80;;;;;;5079940;28;20107;-68
2023/03/30 09:43:45;;;;;;;6.90;1.95;;;14.20;82.60;;;;;;5081495;28;20066;-69
2023/03/30 09:46:12;;;;;;;7.45;1.77;;;14.40;82.50;;;;;;5082820;28;20099;-69
2023/03/30 09:48:40;;;;;;;7.82;1.90;;;14.40;82.50;;;;;;5076968;28;20020;-69
2023/03/30 09:51:27;;;;;;;6.38;1.90;;;14.60;82.90;;;;;;5086553;28;20036;-69
2023/03/30 09:54:00;;;;;;;8.60;2.20;;;14.60;81.70;;;;;;5080658;28;20024;-68
2023/03/30 09:56:34;;;;;;;6.90;2.28;;;14.60;81.60;;;;;;5075547;28;20120;-70
2023/03/30 09:59:27;;;;;;;8.13;2.40;;;14.70;81.50;;;;;;5087740;28;20046;-69
2023/03/30 10:02:18;;;;;;;5.57;1.65;;;14.80;81.30;;;;;;5086169;28;20176;-69
2023/03/30 10:05:05;;;;;;;4.82;1.42;;;14.90;80.90;;;;;;5075720;28;20770;-70
2023/03/30 10:07:37;;;;;;;8.45;2.40;;;14.90;80.30;;;;;;5080018;28;20036;-69
2023/03/30 10:10:27;;;;;;;7.80;2.13;;;14.90;80.40;;;;;;5078693;28;20043;-69
2023/03/30 10:12:55;;;;;;;5.03;1.58;;;14.90;80.10;;;;;;5088600;28;20031;-70
2023/03/30 10:15:26;;;;;;;11.27;1.98;;;15.10;80.00;;;;;;5085707;28;20094;-70
2023/03/30 10:17:55;;;;;;;5.03;1.60;;;15.20;79.50;;;;;;5083661;28;20024;-70
2023/03/30 10:20:25;;;;;;;7.03;1.70;;;15.20;79.00;;;;;;5085372;28;20028;-70
2023/03/30 10:22:59;;;;;;;4.97;1.63;;;15.20;78.80;;;;;;5091725;28;20024;-69
2023/03/30 10:25:31;;;;;;;9.25;2.00;;;15.30;78.60;;;;;;5072806;28;20013;-68
2023/03/30 10:28:02;;;;;;;8.63;2.25;;;15.20;78.00;;;;;;5075519;28;20074;-68
2023/03/30 10:30:28;;;;;;;9.13;1.98;;;15.10;77.70;;;;;;5089813;28;20016;-69
2023/03/30 10:32:58;;;;;;;6.32;1.50;;;15.00;77.80;;;;;;5086000;28;20463;-69
2023/03/30 10:35:30;;;;;;;5.47;1.40;;;15.00;78.20;;;;;;5081282;28;20024;-68
2023/03/30 10:37:57;;;;;;;5.55;1.75;;;15.10;78.20;;;;;;5086440;28;20024;-70
2023/03/30 10:40:31;;;;;;;3.85;1.33;;;15.20;77.70;;;;;;5080051;28;20031;-70
2023/03/30 10:42:58;;;;;;;9.02;1.90;;;15.30;77.70;;;;;;5080692;28;20024;-69
2023/03/30 10:45:39;;;;;;;5.28;1.45;;;15.20;77.30;;;;;;5082476;28;20024;-69
2023/03/30 10:48:43;;;;;;;5.93;1.80;;;15.20;77.30;;;;;;5084035;28;20031;-69
2023/03/30 10:51:27;;;;;;;4.95;1.52;;;15.30;77.10;;;;;;5089727;28;20075;-69
2023/03/30 10:54:06;;;;;;;10.07;2.30;;;15.40;77.00;;;;;;5087693;28;20099;-69
2023/03/30 10:56:45;;;;;;;4.88;2.15;;;15.50;76.80;;;;;;5082434;28;20425;-69
2023/03/30 10:59:38;;;;;;;7.28;2.00;;;15.60;76.00;;;;;;5085097;28;20031;-71
2023/03/30 11:02:34;;;;;;;7.80;1.88;;;15.60;75.10;;;;;;5089218;28;20024;-71
2023/03/30 11:05:34;;;;;;;10.82;2.13;;;15.60;75.30;;;;;;5082948;28;20021;-70
2023/03/30 11:08:10;;;;;;;7.15;1.65;;;15.50;75.30;;;;;;5074295;28;20021;-71
2023/03/30 11:10:40;;;;;;;8.60;1.60;;;15.50;75.40;;;;;;5084602;28;20032;-70
2023/03/30 11:13:17;;;;;;;9.75;2.55;;;15.60;75.50;;;;;;5090162;28;20419;-70
2023/03/30 11:15:51;;;;;;;7.97;1.90;;;15.70;75.00;;;;;;5088747;28;20028;-70
2023/03/30 11:18:39;;;;;;;7.72;1.60;;;15.70;74.60;;;;;;5074106;28;20062;-69
2023/03/30 11:21:13;;;;;;;7.00;1.83;;;15.80;75.10;;;;;;5087992;28;20036;-69
2023/03/30 11:23:58;;;;;;;9.73;2.20;;;15.90;74.80;;;;;;5079434;28;20044;-71
2023/03/30 11:26:36;;;;;;;8.23;1.95;;;15.80;74.50;;;;;;5077708;28;20028;-71
2023/03/30 11:29:12;;;;;;;7.50;2.05;;;15.80;74.70;;;;;;5081676;28;20024;-69
2023/03/30 11:31:39;;;;;;;8.45;2.17;;;15.90;74.70;;;;;;5087907;28;20393;-70
2023/03/30 11:34:35;;;;;;;8.25;2.10;;;15.90;74.70;;;;;;5078436;28;20120;-71
2023/03/30 11:37:51;;;;;;;7.68;2.00;;;16.10;74.70;;;;;;5085122;28;20036;-71
2023/03/30 11:40:27;;;;;;;10.85;2.60;;;16.10;73.80;;;;;;5078450;28;20040;-71
2023/03/30 11:42:53;;;;;;;8.77;1.98;;;16.10;73.40;;;;;;5074485;28;20032;-70
2023/03/30 11:45:51;;;;;;;12.32;1.98;;;16.10;73.70;;;;;;5074237;28;20016;-71
2023/03/30 11:48:47;;;;;;;6.35;1.75;;;16.00;73.80;;;;;;5087298;28;20058;-70
2023/03/30 11:51:30;;;;;;;5.40;1.75;;;16.00;74.50;;;;;;5073591;28;20064;-69
2023/03/30 11:53:59;;;;;;;6.78;1.48;;;15.90;73.50;;;;;;5071398;28;20032;-70
2023/03/30 11:56:41;;;;;;;6.03;1.02;;;16.00;73.90;;;;;;5082064;28;20496;-68
2023/03/30 11:59:24;;;;;;;;;;;16.00;73.70;;;;;;5089504;28;20088;-68
2023/03/30 12:02:06;;;;;;;5.85;1.60;;;15.90;73.40;;;;;;5089031;28;20382;-71
2023/03/30 12:05:05;;;;;;;4.55;1.08;;;15.90;73.30;;;;;;5075466;28;20029;-70
2023/03/30 12:07:46;;;;;;;7.40;1.55;;;15.90;72.80;;;;;;5070731;28;20031;-71
2023/03/30 12:10:32;;;;;;;7.65;1.98;;;16.00;72.80;;;;;;5082963;28;20430;-70
2023/03/30 12:12:59;;;;;;;5.38;1.63;;;16.00;72.40;;;;;;5089119;28;20485;-70
2023/03/30 12:15:34;;;;;;;6.53;1.45;;;16.20;72.70;;;;;;5071321;28;20479;-70
2023/03/30 12:18:22;;;;;;;6.63;1.30;;;16.30;72.40;;;;;;5069563;28;20399;-71
2023/03/30 12:21:02;;;;;;;4.63;1.35;;;16.50;71.40;;;;;;5079374;28;20036;-71
2023/03/30 12:23:30;;;;;;;8.82;1.58;;;16.60;71.00;;;;;;5079165;28;20021;-71
2023/03/30 12:26:06;;;;;;;11.48;1.55;;;16.60;70.30;;;;;;5083827;28;20566;-69
2023/03/30 12:29:03;;;;;;;7.85;1.77;;;16.50;70.00;;;;;;5085810;28;20394;-70
2023/03/30 12:31:48;;;;;;;8.55;1.80;;;16.40;69.90;;;;;;5089545;28;20047;-71
2023/03/30 12:34:14;;;;;;;8.32;1.35;;;16.40;70.60;;;;;;5078084;28;20040;-71
2023/03/30 12:36:45;;;;;;;6.50;1.48;;;16.40;70.20;;;;;;5075929;28;20027;-70
2023/03/30 12:39:29;;;;;;;5.47;1.45;;;16.40;70.00;;;;;;5080747;28;20036;-70
2023/03/30 12:42:25;;;;;;;3.92;1.23;;;16.40;70.30;;;;;;5081003;28;20103;-69
2023/03/30 12:45:19;;;;;;;7.32;1.50;;;16.50;70.30;;;;;;5078300;28;20088;-71
2023/03/30 12:47:45;;;;;;;7.38;1.60;;;16.70;70.00;;;;;;5081041;28;20052;-70
2023/03/30 12:50:32;;;;;;;7.13;1.48;;;16.70;69.20;;;;;;5089122;28;20054;-70
2023/03/30 12:53:41;;;;;;;7.47;1.42;;;16.80;69.00;;;;;;5087971;28;20020;-71
2023/03/30 12:56:25;;;;;;;10.82;2.10;;;16.90;68.50;;;;;;5084432;28;20028;-70
2023/03/30 12:59:00;;;;;;;8.13;1.40;;;17.10;68.60;;;;;;5079749;28;20115;-71
2023/03/30 13:01:44;;;;;;;4.88;1.50;;;17.20;68.50;;;;;;5086842;28;20024;-71
2023/03/30 13:04:23;;;;;;;6.05;1.63;;;17.10;68.50;;;;;;5086469;28;20056;-70
2023/03/30 13:06:56;;;;;;;8.32;1.35;;;17.00;68.30;;;;;;5086181;28;20486;-71
2023/03/30 13:09:26;;;;;;;8.52;1.50;;;16.90;68.40;;;;;;5085152;28;20470;-68
2023/03/30 13:11:51;;;;;;;6.70;1.48;;;16.90;68.70;;;;;;5080725;28;20020;-71
2023/03/30 13:14:29;;;;;;;8.57;1.60;;;16.90;68.80;;;;;;5080714;28;20043;-68